sim
Sign-in with your pilot id or email,
or register
Callsign
Passwort

Schedule Details

Flight Number: RYR6303 (2)
Departure: Fuerteventura Airport (GCFV) at 19:20
Arrival: Barcelona El Prat Airport (LEBL) at 22:30
Route: Ryanair Passenger Schedule. Enter filed route here before submitting Pirep.

Weather Information
Getting current METAR information for GCFV 211530Z 07005KT 020V110 CAVOK 20/14 Q1020
Getting current METAR information for LEBL 211530Z 21012KT CAVOK 13/09 Q1029 NOSIG

Schedule Frequency

Route Map